createdAt,value
2019-01-16T00:01:36.111Z,98719.15
2019-01-16T00:04:06.778Z,98718.70
2019-01-16T00:08:48.073Z,98709.14
2019-01-16T00:13:37.771Z,98711.90
2019-01-16T00:16:08.459Z,98714.45
2019-01-16T00:18:39.149Z,98713.48
2019-01-16T00:21:09.839Z,98708.76
2019-01-16T00:23:40.506Z,98706.30
2019-01-16T00:26:11.204Z,98706.81
2019-01-16T00:31:14.240Z,98702.50
2019-01-16T00:33:44.901Z,98704.63
2019-01-16T00:36:15.597Z,98691.69
2019-01-16T00:38:46.263Z,98697.73
2019-01-16T00:41:16.955Z,98687.53
2019-01-16T00:43:47.638Z,98682.37
2019-01-16T00:46:18.336Z,98680.70
2019-01-16T00:48:49.047Z,98683.73
2019-01-16T00:51:19.725Z,98677.73
2019-01-16T00:53:50.397Z,98679.50
2019-01-16T00:56:21.089Z,98672.68
2019-01-16T01:06:15.526Z,98664.23
2019-01-16T01:08:46.218Z,98670.70
2019-01-16T01:11:16.915Z,98671.62
2019-01-16T01:13:47.607Z,98672.53
2019-01-16T01:16:18.279Z,98671.84
2019-01-16T01:21:07.595Z,98671.55
2019-01-16T01:23:38.279Z,98672.41
2019-01-16T01:26:08.959Z,98675.94
2019-01-16T01:30:58.768Z,98673.70
2019-01-16T01:33:29.440Z,98673.67
2019-01-16T01:36:00.139Z,98673.13
2019-01-16T01:38:30.822Z,98670.25
2019-01-16T01:41:01.512Z,98670.05
2019-01-16T01:43:32.201Z,98672.17
2019-01-16T01:46:02.865Z,98676.27
2019-01-16T01:55:33.560Z,98668.91
2019-01-16T02:02:55.448Z,98670.45
2019-01-16T02:05:26.245Z,98675.61
2019-01-16T02:07:56.953Z,98671.72
2019-01-16T02:10:49.431Z,98672.08
2019-01-16T02:13:20.096Z,98662.17
2019-01-16T02:18:09.544Z,98662.95
2019-01-16T02:23:02.954Z,98662.22
2019-01-16T02:27:56.889Z,98658.34
2019-01-16T02:30:49.285Z,98651.91
2019-01-16T02:33:20.003Z,98648.06
2019-01-16T02:35:50.751Z,98639.78
2019-01-16T02:38:21.444Z,98645.02
2019-01-16T02:43:10.793Z,98643.13
2019-01-16T02:45:41.461Z,98641.30
2019-01-16T02:48:12.269Z,98640.88
2019-01-16T02:50:42.960Z,98639.15
2019-01-16T02:53:13.626Z,98632.33
2019-01-16T02:58:16.672Z,98626.25
2019-01-16T03:00:47.345Z,98621.05
2019-01-16T03:08:02.847Z,98604.38
2019-01-16T03:10:33.522Z,98595.01
2019-01-16T03:13:04.216Z,98597.97
2019-01-16T03:18:07.252Z,98587.20
2019-01-16T03:20:37.943Z,98586.45
2019-01-16T03:23:08.639Z,98583.13
2019-01-16T03:30:30.300Z,98578.47
2019-01-16T03:33:00.989Z,98572.95
2019-01-16T03:37:50.013Z,98580.06
2019-01-16T03:40:20.696Z,98576.94
2019-01-16T03:42:51.366Z,98570.38
2019-01-16T03:45:43.833Z,98570.67
2019-01-16T03:50:46.910Z,98558.12
2019-01-16T03:53:17.579Z,98559.64
2019-01-16T03:58:06.932Z,98543.94
2019-01-16T04:00:37.616Z,98547.92
2019-01-16T04:03:08.284Z,98544.88
2019-01-16T04:07:57.726Z,98547.17
2019-01-16T04:10:50.195Z,98542.11
2019-01-16T04:15:53.223Z,98533.38
2019-01-16T04:18:23.886Z,98537.64
2019-01-16T04:20:54.573Z,98535.00
2019-01-16T04:23:25.266Z,98533.57
2019-01-16T04:25:55.947Z,98533.17
2019-01-16T04:28:26.620Z,98533.17
2019-01-16T04:33:29.663Z,98528.21
2019-01-16T04:36:00.339Z,98523.08
2019-01-16T04:38:31.031Z,98529.81
2019-01-16T04:41:01.803Z,98525.02
2019-01-16T04:43:32.512Z,98528.40
2019-01-16T04:48:35.569Z,98513.36
2019-01-16T04:51:06.230Z,98508.17
2019-01-16T04:53:36.920Z,98502.48
2019-01-16T04:58:39.972Z,98500.04
2019-01-16T05:03:43.015Z,98496.55
2019-01-16T05:08:46.033Z,98499.74
2019-01-16T05:11:16.710Z,98497.09
2019-01-16T05:16:09.521Z,98493.82
2019-01-16T05:18:41.571Z,98488.83
2019-01-16T05:21:12.789Z,98482.80
2019-01-16T05:23:43.510Z,98482.29
2019-01-16T05:26:14.181Z,98475.39
2019-01-16T05:28:44.896Z,98473.19
2019-01-16T05:35:53.226Z,98457.33
2019-01-16T05:40:56.248Z,98464.14
2019-01-16T05:48:21.437Z,98443.81
2019-01-16T05:53:14.534Z,98438.98
2019-01-16T05:55:45.232Z,98451.16
2019-01-16T05:58:15.904Z,98451.59
2019-01-16T06:00:46.612Z,98461.03
2019-01-16T06:08:08.562Z,98455.77
2019-01-16T06:10:39.281Z,98446.83
2019-01-16T06:13:09.961Z,98450.79
2019-01-16T06:17:59.560Z,98451.66
2019-01-16T06:20:51.995Z,98456.70
2019-01-16T06:23:22.686Z,98463.27
2019-01-16T06:25:53.397Z,98447.94
2019-01-16T06:28:24.086Z,98450.44
2019-01-16T06:33:33.568Z,98445.59
2019-01-16T06:36:04.240Z,98449.09
2019-01-16T06:38:34.935Z,98447.70
2019-01-16T06:41:05.612Z,98437.27
2019-01-16T06:43:36.315Z,98441.96
2019-01-16T06:46:06.997Z,98442.77
2019-01-16T06:48:37.726Z,98437.70
2019-01-16T06:51:08.391Z,98436.94
2019-01-16T06:53:39.085Z,98439.97
2019-01-16T06:58:42.108Z,98435.92
2019-01-16T07:01:12.778Z,98435.00
2019-01-16T07:03:43.473Z,98430.84
2019-01-16T07:06:14.179Z,98420.34
2019-01-16T07:08:44.865Z,98411.14
2019-01-16T07:11:15.551Z,98403.86
2019-01-16T07:16:05.005Z,98409.44
2019-01-16T07:20:54.171Z,98412.85
2019-01-16T07:23:24.864Z,98412.34
2019-01-16T07:25:55.550Z,98409.70
2019-01-16T07:28:26.240Z,98413.97
2019-01-16T07:35:38.008Z,98415.65
2019-01-16T07:38:08.681Z,98407.81
2019-01-16T07:40:39.388Z,98405.61
2019-01-16T07:45:42.617Z,98401.02
2019-01-16T07:48:13.308Z,98406.48
2019-01-16T07:53:06.147Z,98387.46
2019-01-16T07:55:36.824Z,98384.06
2019-01-16T07:58:07.519Z,98388.77
2019-01-16T08:00:38.230Z,98389.13
2019-01-16T08:03:08.906Z,98382.56
2019-01-16T08:05:39.577Z,98383.79
2019-01-16T08:08:10.280Z,98385.52
2019-01-16T08:10:40.987Z,98387.19
2019-01-16T08:18:02.798Z,98388.62
2019-01-16T08:27:33.374Z,98388.69
2019-01-16T08:32:36.517Z,98376.63
2019-01-16T08:35:07.363Z,98378.42
2019-01-16T08:42:15.489Z,98363.16
2019-01-16T08:44:46.184Z,98368.41
2019-01-16T08:47:16.884Z,98364.39
2019-01-16T08:49:47.540Z,98371.87
2019-01-16T08:52:18.243Z,98359.68
2019-01-16T08:54:48.923Z,98356.72
2019-01-16T08:57:19.594Z,98348.91
2019-01-16T08:59:50.282Z,98343.09
2019-01-16T09:07:11.953Z,98342.39
2019-01-16T09:09:42.632Z,98346.72
2019-01-16T09:12:13.521Z,98351.39
2019-01-16T09:14:44.262Z,98353.52
2019-01-16T09:17:14.961Z,98348.73
2019-01-16T09:19:45.670Z,98349.69
2019-01-16T09:22:16.364Z,98360.28
2019-01-16T09:24:47.051Z,98357.64
2019-01-16T09:31:55.406Z,98347.20
2019-01-16T09:36:48.413Z,98347.11
2019-01-16T09:41:37.667Z,98338.88
2019-01-16T09:44:17.045Z,98336.22
2019-01-16T09:46:47.813Z,98327.77
2019-01-16T09:49:18.518Z,98330.14
2019-01-16T09:59:06.631Z,98304.26
2019-01-16T10:01:37.311Z,98301.85
2019-01-16T10:04:08.120Z,98299.68
2019-01-16T10:06:38.819Z,98292.55
2019-01-16T10:09:09.536Z,98290.67
2019-01-16T10:14:12.720Z,98289.14
2019-01-16T10:19:15.802Z,98271.33
2019-01-16T10:21:46.485Z,98271.44
2019-01-16T10:24:17.180Z,98265.22
2019-01-16T10:26:47.875Z,98255.69
2019-01-16T10:31:51.053Z,98246.04
2019-01-16T10:34:21.766Z,98242.50
2019-01-16T10:36:52.557Z,98248.73
2019-01-16T10:39:45.043Z,98249.88
2019-01-16T10:42:15.751Z,98254.30
2019-01-16T10:47:18.803Z,98251.77
2019-01-16T10:49:49.500Z,98250.09
2019-01-16T10:57:00.959Z,98232.62
2019-01-16T10:59:31.635Z,98224.39
2019-01-16T11:04:20.818Z,98222.55
2019-01-16T11:06:51.504Z,98217.63
2019-01-16T11:09:43.966Z,98208.31
2019-01-16T11:12:14.674Z,98212.94
2019-01-16T11:14:45.360Z,98201.45
2019-01-16T11:17:16.081Z,98198.31
2019-01-16T11:19:46.757Z,98188.34
2019-01-16T11:22:17.466Z,98183.50
2019-01-16T11:24:48.156Z,98179.63
2019-01-16T11:27:18.859Z,98172.34
2019-01-16T11:29:49.538Z,98165.14
2019-01-16T11:32:20.254Z,98166.44
2019-01-16T11:34:50.936Z,98162.19
2019-01-16T11:37:21.636Z,98163.34
2019-01-16T11:39:52.415Z,98160.90
2019-01-16T11:42:23.114Z,98153.89
2019-01-16T11:44:53.790Z,98140.00
2019-01-16T11:49:56.920Z,98140.72
2019-01-16T11:52:27.616Z,98141.95
2019-01-16T11:54:58.380Z,98140.19
2019-01-16T12:02:23.815Z,98121.13
2019-01-16T12:04:54.522Z,98120.72
2019-01-16T12:07:25.200Z,98118.36
2019-01-16T12:12:14.751Z,98101.25
2019-01-16T12:14:45.562Z,98098.96
2019-01-16T12:19:38.555Z,98090.97
2019-01-16T12:29:19.125Z,98062.83
2019-01-16T12:31:50.715Z,98059.81
2019-01-16T12:36:40.158Z,98051.63
2019-01-16T12:39:10.873Z,98047.19
2019-01-16T12:41:41.556Z,98042.51
2019-01-16T12:46:44.649Z,98041.83
2019-01-16T12:49:15.382Z,98032.78
2019-01-16T12:51:46.085Z,98026.38
2019-01-16T12:54:16.788Z,98025.55
2019-01-16T12:56:47.489Z,98024.66
2019-01-16T12:59:18.161Z,98023.49
2019-01-16T13:01:48.867Z,98028.66
2019-01-16T13:06:51.904Z,98019.03
2019-01-16T13:09:44.364Z,98014.02
2019-01-16T13:12:15.053Z,98009.92
2019-01-16T13:14:45.746Z,98003.45
2019-01-16T13:17:16.463Z,98001.40
2019-01-16T13:22:19.497Z,97995.48
2019-01-16T13:24:50.178Z,97991.45
2019-01-16T13:27:20.987Z,97987.58
2019-01-16T13:32:24.228Z,97989.24
2019-01-16T13:34:54.911Z,97977.92
2019-01-16T13:37:25.610Z,97982.02
2019-01-16T13:39:56.319Z,97971.25
2019-01-16T13:42:27.310Z,97968.11
2019-01-16T13:44:58.223Z,97966.81
2019-01-16T13:47:29.017Z,97961.09
2019-01-16T13:49:59.758Z,97950.48
2019-01-16T13:52:30.539Z,97950.64
2019-01-16T13:55:01.250Z,97949.55
2019-01-16T13:57:32.044Z,97940.98
2019-01-16T14:00:02.745Z,97946.02
2019-01-16T14:02:33.427Z,97944.64
2019-01-16T14:07:27.047Z,97927.47
2019-01-16T14:09:57.833Z,97925.66
2019-01-16T14:19:42.283Z,97913.17
2019-01-16T14:24:45.361Z,97908.62
2019-01-16T14:27:16.084Z,97906.91
2019-01-16T14:29:46.964Z,97902.50
2019-01-16T14:32:17.780Z,97895.83
2019-01-16T14:34:48.450Z,97894.76
2019-01-16T14:37:19.160Z,97891.28
2019-01-16T14:39:49.860Z,97891.34
2019-01-16T14:44:42.642Z,97878.27
2019-01-16T14:54:10.378Z,97868.71
2019-01-16T14:56:41.087Z,97868.71
2019-01-16T14:59:11.893Z,97864.10
2019-01-16T15:04:15.118Z,97861.67
2019-01-16T15:09:18.179Z,97856.57
2019-01-16T15:11:48.876Z,97859.31
2019-01-16T15:14:19.582Z,97857.03
2019-01-16T15:21:45.215Z,97859.86
2019-01-16T15:24:15.910Z,97854.02
2019-01-16T15:26:46.609Z,97854.64
2019-01-16T15:29:17.312Z,97851.28
2019-01-16T15:31:48.003Z,97853.96
2019-01-16T15:34:18.714Z,97854.58
2019-01-16T15:36:49.439Z,97854.05
2019-01-16T15:41:52.601Z,97837.75
2019-01-16T15:44:23.422Z,97830.86
2019-01-16T15:46:54.155Z,97832.59
2019-01-16T15:51:57.252Z,97826.77
2019-01-16T15:57:00.417Z,97824.77
2019-01-16T16:02:03.588Z,97824.98
2019-01-16T16:07:06.643Z,97811.70
2019-01-16T16:12:09.704Z,97801.07
2019-01-16T16:14:40.373Z,97804.25
2019-01-16T16:17:11.076Z,97798.48
2019-01-16T16:22:19.284Z,97799.59
2019-01-16T16:24:46.703Z,97800.23
2019-01-16T16:29:36.248Z,97795.66
2019-01-16T16:34:25.488Z,97796.70
2019-01-16T16:36:56.292Z,97789.81
2019-01-16T16:39:48.716Z,97788.20
2019-01-16T16:42:19.410Z,97786.47
2019-01-16T16:44:50.092Z,97789.88
2019-01-16T16:47:20.970Z,97783.03
2019-01-16T16:49:51.662Z,97776.29
2019-01-16T16:54:44.728Z,97774.95
2019-01-16T16:57:15.438Z,97777.70
2019-01-16T17:02:18.493Z,97766.58
2019-01-16T17:04:49.180Z,97758.35
2019-01-16T17:09:52.340Z,97758.94
2019-01-16T17:12:23.157Z,97749.55
2019-01-16T17:17:16.455Z,97752.91
2019-01-16T17:19:47.170Z,97753.05
2019-01-16T17:22:17.853Z,97758.06
2019-01-16T17:24:48.567Z,97752.45
2019-01-16T17:27:19.253Z,97754.65
2019-01-16T17:29:49.955Z,97749.05
2019-01-16T17:32:20.680Z,97756.26
2019-01-16T17:34:51.430Z,97751.25
2019-01-16T17:37:22.213Z,97744.95
2019-01-16T17:39:52.922Z,97739.94
2019-01-16T17:44:56.155Z,97735.23
2019-01-16T17:47:26.951Z,97734.31
2019-01-16T17:49:57.692Z,97730.08
2019-01-16T17:52:28.569Z,97724.53
2019-01-16T18:00:00.765Z,97718.59
2019-01-16T18:05:03.859Z,97715.02
2019-01-16T18:07:34.550Z,97704.89
2019-01-16T18:10:05.252Z,97702.42
2019-01-16T18:12:35.945Z,97700.67
2019-01-16T18:15:06.614Z,97701.64
2019-01-16T18:17:37.354Z,97690.66
2019-01-16T18:20:08.043Z,97693.14
2019-01-16T18:22:38.747Z,97694.75
2019-01-16T18:25:09.439Z,97697.27
2019-01-16T18:27:40.200Z,97698.98
2019-01-16T18:30:10.876Z,97695.81
2019-01-16T18:32:42.532Z,97695.22
2019-01-16T18:40:04.184Z,97689.05
2019-01-16T18:42:34.910Z,97682.92
2019-01-16T18:47:37.988Z,97690.19
2019-01-16T18:50:08.722Z,97686.55
2019-01-16T18:52:39.441Z,97687.95
2019-01-16T19:00:14.913Z,97685.03
2019-01-16T19:02:45.736Z,97686.46
2019-01-16T19:05:16.390Z,97685.88
2019-01-16T19:07:47.106Z,97685.47
2019-01-16T19:10:17.900Z,97683.35
2019-01-16T19:12:48.603Z,97687.22
2019-01-16T19:15:19.407Z,97678.75
2019-01-16T19:17:50.123Z,97679.17
2019-01-16T19:20:21.298Z,97673.41
2019-01-16T19:25:24.602Z,97669.88
2019-01-16T19:27:55.346Z,97667.36
2019-01-16T19:33:05.086Z,97662.89
2019-01-16T19:35:35.834Z,97662.89
2019-01-16T19:40:39.014Z,97660.09
2019-01-16T19:43:09.806Z,97658.65
2019-01-16T19:45:40.510Z,97666.75
2019-01-16T19:48:11.210Z,97669.88
2019-01-16T19:50:41.989Z,97658.34
2019-01-16T19:53:12.686Z,97655.39
2019-01-16T19:55:43.437Z,97658.42
2019-01-16T19:58:14.125Z,97664.56
2019-01-16T20:00:44.982Z,97648.36
2019-01-16T20:03:15.691Z,97662.53
2019-01-16T20:05:46.400Z,97664.72
2019-01-16T20:08:17.140Z,97664.05
2019-01-16T20:10:47.823Z,97661.16
2019-01-16T20:13:18.826Z,97661.75
2019-01-16T20:15:49.548Z,97670.85
2019-01-16T20:18:20.277Z,97666.30
2019-01-16T20:23:23.544Z,97666.00
2019-01-16T20:25:54.233Z,97662.53
2019-01-16T20:30:43.769Z,97662.35
2019-01-16T20:33:14.478Z,97656.92
2019-01-16T20:38:17.610Z,97656.38
2019-01-16T20:43:20.686Z,97656.30
2019-01-16T20:45:51.490Z,97657.12
2019-01-16T20:48:22.482Z,97651.60
2019-01-16T20:50:53.175Z,97644.49
2019-01-16T20:55:45.942Z,97640.01
2019-01-16T21:02:56.641Z,97633.20
2019-01-16T21:10:08.590Z,97626.00
2019-01-16T21:12:39.280Z,97626.28
2019-01-16T21:15:09.990Z,97622.81
2019-01-16T21:17:40.694Z,97622.48
2019-01-16T21:20:11.422Z,97621.66
2019-01-16T21:22:42.446Z,97622.48
2019-01-16T21:25:16.297Z,97623.41
2019-01-16T21:27:45.902Z,97618.25
2019-01-16T21:30:16.599Z,97614.02
2019-01-16T21:32:47.294Z,97615.06
2019-01-16T21:35:18.120Z,97612.58
2019-01-16T21:40:42.948Z,97612.64
2019-01-16T21:43:13.673Z,97618.02
2019-01-16T21:48:06.474Z,97610.67
2019-01-16T21:50:37.154Z,97610.22
2019-01-16T21:55:30.254Z,97608.63
2019-01-16T22:00:19.654Z,97609.91
2019-01-16T22:02:50.376Z,97616.72
2019-01-16T22:05:21.163Z,97616.30
2019-01-16T22:07:51.857Z,97608.78
2019-01-16T22:10:44.313Z,97606.81
2019-01-16T22:17:56.323Z,97617.03
2019-01-16T22:20:27.115Z,97613.11
2019-01-16T22:25:16.479Z,97611.41
2019-01-16T22:30:19.735Z,97611.66
2019-01-16T22:32:50.571Z,97607.27
2019-01-16T22:35:21.387Z,97605.80
2019-01-16T22:37:52.131Z,97610.06
2019-01-16T22:40:44.624Z,97602.18
2019-01-16T22:43:15.424Z,97601.26
2019-01-16T22:50:45.393Z,97595.45
2019-01-16T22:53:16.096Z,97591.50
2019-01-16T22:55:46.997Z,97589.10
2019-01-16T22:58:17.678Z,97590.39
2019-01-16T23:01:10.166Z,97596.98
2019-01-16T23:03:40.926Z,97582.35
2019-01-16T23:10:52.797Z,97575.02
2019-01-16T23:13:23.471Z,97580.62
2019-01-16T23:15:54.258Z,97577.43
2019-01-16T23:18:24.933Z,97574.45
2019-01-16T23:20:55.642Z,97574.91
2019-01-16T23:25:58.710Z,97572.22
2019-01-16T23:28:29.379Z,97564.55
2019-01-16T23:31:00.287Z,97568.02
2019-01-16T23:33:31.055Z,97580.31
2019-01-16T23:36:01.759Z,97570.23
2019-01-16T23:38:32.425Z,97575.38
2019-01-16T23:43:35.558Z,97570.08
2019-01-16T23:46:06.237Z,97569.71
2019-01-16T23:50:59.337Z,97573.33
2019-01-16T23:53:30.030Z,97572.28
2019-01-16T23:56:00.709Z,97577.09
2019-01-16T23:58:31.412Z,97573.69
